Time;durP1;ratioP1;P1;durP2;ratioP2;P2;SDS_P1;SDS_P2;PMS_P1;PMS_P2;Temp;Humidity;BMP_temperature;BMP_pressure;BME280_temperature;BME280_humidity;BME280_pressure;Samples;Min_cycle;Max_cycle;Signal;HPM_P1;HPM_P2
2022/03/15 00:02:17;;;;;;;127.15;56.95;;;;;;;;;;5082437;28;20195;-90
2022/03/15 00:04:43;;;;;;;120.50;52.78;;;;;;;;;;5082923;28;20282;-90
2022/03/15 00:07:13;;;;;;;120.00;54.83;;;;;;;;;;5084009;28;20199;-89
2022/03/15 00:09:40;;;;;;;123.93;55.83;;;;;;;;;;5084287;28;20559;-89
2022/03/15 00:12:08;;;;;;;123.07;54.38;;;;;;;;;;5083849;28;20211;-89
2022/03/15 00:14:37;;;;;;;118.22;52.38;;;;;;;;;;5083758;28;20236;-89
2022/03/15 00:17:05;;;;;;;117.65;54.35;;;;;;;;;;5083558;28;20318;-89
2022/03/15 00:19:32;;;;;;;126.22;52.97;;;;;;;;;;5083500;28;20219;-89
2022/03/15 00:21:58;;;;;;;122.40;53.55;;;;;;;;;;5083147;28;20203;-88
2022/03/15 00:24:25;;;;;;;125.18;52.70;;;;;;;;;;5083680;28;20221;-89
2022/03/15 00:26:53;;;;;;;115.82;53.30;;;;;;;;;;5083680;28;20252;-89
2022/03/15 00:29:23;;;;;;;121.45;54.17;;;;;;;;;;5083060;28;20309;-90
2022/03/15 00:31:51;;;;;;;132.68;52.42;;;;;;;;;;5084131;28;20203;-89
2022/03/15 00:34:17;;;;;;;123.60;52.83;;;;;;;;;;5083812;28;20195;-89
2022/03/15 00:36:43;;;;;;;116.55;52.75;;;;;;;;;;5083966;28;20195;-90
2022/03/15 00:39:10;;;;;;;122.50;54.22;;;;;;;;;;5083790;28;20936;-90
2022/03/15 00:41:36;;;;;;;123.78;53.90;;;;;;;;;;5083409;28;20304;-89
2022/03/15 00:44:03;;;;;;;118.25;54.40;;;;;;;;;;5082130;28;20252;-89
2022/03/15 00:46:29;;;;;;;123.75;54.40;;;;;;;;;;5082825;28;20203;-90
2022/03/15 00:48:57;;;;;;;124.80;53.65;;;;;;;;;;5082701;28;20714;-90
2022/03/15 00:51:24;;;;;;;122.80;54.63;;;;;;;;;;5083695;28;20195;-90
2022/03/15 00:53:50;;;;;;;122.82;54.05;;;;;;;;;;5083042;28;20192;-89
2022/03/15 00:56:19;;;;;;;123.80;53.92;;;;;;;;;;5083950;28;20203;-90
2022/03/15 00:58:45;;;;;;;120.43;54.78;;;;;;;;;;5083072;28;20187;-89
2022/03/15 01:01:12;;;;;;;126.20;54.80;;;;;;;;;;5080882;28;20223;-89
2022/03/15 01:03:38;;;;;;;115.18;52.17;;;;;;;;;;5081802;28;20199;-89
2022/03/15 01:06:06;;;;;;;123.45;54.17;;;;;;;;;;5082272;28;20203;-89
2022/03/15 01:08:32;;;;;;;118.97;53.60;;;;;;;;;;5081634;28;20200;-89
2022/03/15 01:11:00;;;;;;;123.38;53.17;;;;;;;;;;5082448;28;20191;-89
2022/03/15 01:13:26;;;;;;;116.22;51.10;;;;;;;;;;5087307;28;20267;-89
2022/03/15 01:15:53;;;;;;;120.72;53.15;;;;;;;;;;5083315;28;20227;-88
2022/03/15 01:18:20;;;;;;;125.43;54.30;;;;;;;;;;5082647;28;20551;-89
2022/03/15 01:20:46;;;;;;;127.60;53.20;;;;;;;;;;5083228;28;20249;-89
2022/03/15 01:23:14;;;;;;;125.40;53.65;;;;;;;;;;5083435;28;20225;-89
2022/03/15 01:25:41;;;;;;;121.43;53.50;;;;;;;;;;5062303;28;20235;-89
2022/03/15 01:28:07;;;;;;;122.90;53.72;;;;;;;;;;5061643;28;20192;-89
2022/03/15 01:30:34;;;;;;;121.35;53.05;;;;;;;;;;5062229;28;20214;-89
2022/03/15 01:33:00;;;;;;;118.45;54.05;;;;;;;;;;5062750;28;20667;-89
2022/03/15 01:35:27;;;;;;;114.13;51.63;;;;;;;;;;5079073;28;20199;-89
2022/03/15 01:37:53;;;;;;;124.40;53.53;;;;;;;;;;5083361;28;20195;-89
2022/03/15 01:40:21;;;;;;;124.65;54.05;;;;;;;;;;5082285;28;20215;-89
2022/03/15 01:42:48;;;;;;;121.00;53.28;;;;;;;;;;5081848;28;21026;-89
2022/03/15 01:45:14;;;;;;;119.60;53.30;;;;;;;;;;5082115;28;20199;-88
2022/03/15 01:47:42;;;;;;;114.85;53.60;;;;;;;;;;5082887;28;20229;-88
2022/03/15 01:50:09;;;;;;;123.63;52.88;;;;;;;;;;5082619;28;20324;-89
2022/03/15 01:52:36;;;;;;;125.57;53.25;;;;;;;;;;5081500;28;20200;-89
2022/03/15 01:55:02;;;;;;;112.22;50.05;;;;;;;;;;5082868;28;20195;-88
2022/03/15 01:57:30;;;;;;;113.47;50.00;;;;;;;;;;5082322;28;20272;-88
2022/03/15 01:59:57;;;;;;;120.47;52.50;;;;;;;;;;5082215;28;20547;-90
2022/03/15 02:02:24;;;;;;;122.72;52.88;;;;;;;;;;5082284;28;20203;-89
2022/03/15 02:04:51;;;;;;;118.18;52.08;;;;;;;;;;5082293;28;20195;-89
2022/03/15 02:07:17;;;;;;;117.07;53.30;;;;;;;;;;5082903;28;20233;-89
2022/03/15 02:09:43;;;;;;;114.28;52.25;;;;;;;;;;5081678;28;20196;-89
2022/03/15 02:12:10;;;;;;;118.07;53.47;;;;;;;;;;5082072;28;20233;-89
2022/03/15 02:14:38;;;;;;;121.22;53.88;;;;;;;;;;5085561;28;20199;-89
2022/03/15 02:17:05;;;;;;;113.68;53.05;;;;;;;;;;5086585;28;20281;-90
2022/03/15 02:19:32;;;;;;;121.82;55.40;;;;;;;;;;5086822;28;20213;-90
2022/03/15 02:22:00;;;;;;;113.97;54.20;;;;;;;;;;5086222;28;20231;-90
2022/03/15 02:24:26;;;;;;;110.43;51.78;;;;;;;;;;5073430;28;20196;-90
2022/03/15 02:26:53;;;;;;;120.22;54.20;;;;;;;;;;5063902;28;20200;-90
2022/03/15 02:29:20;;;;;;;115.35;54.50;;;;;;;;;;5064479;28;20572;-89
2022/03/15 02:31:46;;;;;;;117.53;53.97;;;;;;;;;;5065580;28;20208;-90
2022/03/15 02:34:12;;;;;;;113.85;52.00;;;;;;;;;;5065444;28;20196;-89
2022/03/15 02:36:39;;;;;;;122.65;55.50;;;;;;;;;;5063942;28;20222;-90
2022/03/15 02:39:07;;;;;;;121.53;53.17;;;;;;;;;;5063806;28;20210;-90
2022/03/15 02:41:33;;;;;;;122.80;55.22;;;;;;;;;;5075079;28;20227;-90
2022/03/15 02:44:00;;;;;;;124.85;54.20;;;;;;;;;;5085132;28;20207;-90
2022/03/15 02:46:30;;;;;;;113.72;51.22;;;;;;;;;;5085046;28;20263;-90
2022/03/15 02:48:56;;;;;;;117.80;52.97;;;;;;;;;;5084679;28;20227;-90
2022/03/15 02:51:23;;;;;;;125.93;53.10;;;;;;;;;;5087689;28;20196;-89
2022/03/15 02:53:52;;;;;;;121.18;52.33;;;;;;;;;;5089200;28;20199;-90
2022/03/15 02:56:20;;;;;;;118.63;54.78;;;;;;;;;;5067505;28;20288;-89
2022/03/15 02:58:47;;;;;;;119.32;54.00;;;;;;;;;;5085691;28;20675;-89
2022/03/15 03:01:14;;;;;;;120.40;54.40;;;;;;;;;;5085877;28;20223;-90
2022/03/15 03:03:40;;;;;;;119.45;53.30;;;;;;;;;;5085601;28;20218;-89
2022/03/15 03:06:07;;;;;;;119.55;53.58;;;;;;;;;;5084784;28;20221;-90
2022/03/15 03:08:34;;;;;;;120.25;53.45;;;;;;;;;;5084600;28;20249;-90
2022/03/15 03:11:01;;;;;;;126.93;55.85;;;;;;;;;;5083427;28;20196;-89
2022/03/15 03:13:30;;;;;;;117.35;53.20;;;;;;;;;;5083425;28;20204;-88
2022/03/15 03:15:58;;;;;;;116.63;51.28;;;;;;;;;;5083967;28;20238;-89
2022/03/15 03:18:25;;;;;;;124.30;54.17;;;;;;;;;;5085371;28;20893;-89
2022/03/15 03:20:52;;;;;;;114.03;51.00;;;;;;;;;;5084886;28;20211;-89
2022/03/15 03:23:19;;;;;;;112.88;52.75;;;;;;;;;;5084647;28;20219;-89
2022/03/15 03:25:45;;;;;;;113.32;50.90;;;;;;;;;;5084521;28;20195;-89
2022/03/15 03:28:13;;;;;;;114.93;51.90;;;;;;;;;;5085851;28;20199;-89
2022/03/15 03:30:45;;;;;;;116.82;53.72;;;;;;;;;;5084346;28;20245;-89
2022/03/15 03:33:11;;;;;;;115.47;53.95;;;;;;;;;;5081951;28;20199;-91
2022/03/15 03:35:38;;;;;;;117.95;52.92;;;;;;;;;;5072066;28;20196;-91
2022/03/15 03:38:05;;;;;;;117.55;52.50;;;;;;;;;;5065251;28;20204;-91
2022/03/15 03:40:32;;;;;;;115.57;53.03;;;;;;;;;;5064727;28;20210;-91
2022/03/15 03:42:58;;;;;;;108.82;52.15;;;;;;;;;;5063804;28;20306;-91
2022/03/15 03:45:25;;;;;;;119.85;52.63;;;;;;;;;;5063916;28;20201;-90
2022/03/15 03:47:53;;;;;;;119.95;52.97;;;;;;;;;;5072487;28;20208;-91
2022/03/15 03:50:19;;;;;;;109.55;52.38;;;;;;;;;;5084309;28;20210;-91
2022/03/15 03:52:46;;;;;;;111.35;51.63;;;;;;;;;;5084143;28;20203;-92
2022/03/15 03:55:12;;;;;;;125.30;53.50;;;;;;;;;;5084069;28;20191;-92
2022/03/15 03:57:39;;;;;;;117.25;52.60;;;;;;;;;;5084488;28;20547;-91
2022/03/15 04:00:06;;;;;;;123.45;51.90;;;;;;;;;;5084300;28;20199;-91
2022/03/15 04:02:32;;;;;;;108.07;50.20;;;;;;;;;;5083916;28;20226;-90
2022/03/15 04:05:00;;;;;;;110.07;52.28;;;;;;;;;;5077389;28;20231;-91
2022/03/15 04:07:28;;;;;;;116.35;50.97;;;;;;;;;;5063612;28;20207;-91
2022/03/15 04:09:55;;;;;;;112.00;50.90;;;;;;;;;;5063906;28;20327;-91
2022/03/15 04:12:23;;;;;;;121.10;51.97;;;;;;;;;;5063556;28;20234;-91
2022/03/15 04:14:49;;;;;;;110.15;51.47;;;;;;;;;;5063345;28;20283;-91
2022/03/15 04:17:16;;;;;;;124.68;54.45;;;;;;;;;;5062588;28;20236;-91
2022/03/15 04:19:42;;;;;;;108.18;48.47;;;;;;;;;;5063130;28;20611;-91
2022/03/15 04:22:10;;;;;;;111.65;50.00;;;;;;;;;;5082452;28;20235;-91
2022/03/15 04:24:37;;;;;;;113.30;49.53;;;;;;;;;;5084075;28;20200;-91
2022/03/15 04:27:04;;;;;;;113.72;51.67;;;;;;;;;;5082006;28;20199;-90
2022/03/15 04:29:31;;;;;;;110.75;50.70;;;;;;;;;;5081875;28;20265;-91
2022/03/15 04:31:58;;;;;;;111.78;51.40;;;;;;;;;;5084749;28;20199;-90
2022/03/15 04:34:25;;;;;;;108.90;51.03;;;;;;;;;;5083228;28;20200;-90
2022/03/15 04:36:51;;;;;;;112.00;51.13;;;;;;;;;;5082392;28;20203;-91
2022/03/15 04:39:19;;;;;;;116.95;52.40;;;;;;;;;;5081920;28;20261;-91
2022/03/15 04:41:46;;;;;;;112.72;52.17;;;;;;;;;;5083527;28;20276;-91
2022/03/15 04:44:12;;;;;;;115.78;52.80;;;;;;;;;;5083420;28;20287;-91
2022/03/15 04:46:39;;;;;;;109.72;50.28;;;;;;;;;;5081488;28;20202;-91
2022/03/15 04:49:05;;;;;;;113.57;50.53;;;;;;;;;;5082203;28;20663;-90
2022/03/15 04:51:32;;;;;;;114.82;51.85;;;;;;;;;;5081931;28;20203;-90
2022/03/15 04:53:58;;;;;;;112.15;52.50;;;;;;;;;;5080888;28;20196;-91
2022/03/15 04:56:26;;;;;;;114.90;52.20;;;;;;;;;;5083655;28;20192;-91
2022/03/15 04:58:52;;;;;;;109.40;49.30;;;;;;;;;;5083073;28;20241;-91
2022/03/15 05:01:19;;;;;;;114.20;52.25;;;;;;;;;;5080028;28;20219;-91
2022/03/15 05:03:45;;;;;;;119.40;52.28;;;;;;;;;;5061882;28;20200;-90
2022/03/15 05:06:12;;;;;;;113.10;53.70;;;;;;;;;;5062218;28;20277;-90
2022/03/15 05:08:38;;;;;;;117.45;51.88;;;;;;;;;;5062215;28;20207;-90
2022/03/15 05:11:07;;;;;;;108.68;50.47;;;;;;;;;;5068382;28;20209;-90
2022/03/15 05:13:35;;;;;;;118.60;52.53;;;;;;;;;;5082800;28;20218;-90
2022/03/15 05:16:02;;;;;;;115.82;52.75;;;;;;;;;;5083072;28;20238;-91
2022/03/15 05:18:28;;;;;;;111.80;50.90;;;;;;;;;;5083416;28;20249;-90
2022/03/15 05:20:55;;;;;;;123.38;53.17;;;;;;;;;;5082444;28;20221;-90
2022/03/15 05:23:21;;;;;;;122.30;52.35;;;;;;;;;;5082650;28;20196;-90
2022/03/15 05:25:48;;;;;;;115.00;52.00;;;;;;;;;;5081422;28;20188;-91
2022/03/15 05:28:14;;;;;;;116.70;53.90;;;;;;;;;;5080798;28;20199;-90
2022/03/15 05:30:42;;;;;;;120.63;52.00;;;;;;;;;;5081952;28;20608;-91
2022/03/15 05:33:09;;;;;;;117.20;52.80;;;;;;;;;;5083027;28;20199;-90
2022/03/15 05:35:35;;;;;;;118.30;54.95;;;;;;;;;;5082567;28;20196;-90
2022/03/15 05:38:02;;;;;;;119.80;55.92;;;;;;;;;;5082133;28;20196;-90
2022/03/15 05:40:28;;;;;;;129.13;55.47;;;;;;;;;;5082030;28;20195;-90
2022/03/15 05:42:55;;;;;;;116.43;53.88;;;;;;;;;;5082776;28;20253;-90
2022/03/15 05:45:22;;;;;;;127.47;56.35;;;;;;;;;;5078601;28;20249;-90
2022/03/15 05:47:50;;;;;;;129.35;55.75;;;;;;;;;;5061794;28;20227;-90
2022/03/15 05:50:16;;;;;;;127.05;57.55;;;;;;;;;;5076015;28;20680;-90
2022/03/15 05:52:43;;;;;;;129.38;58.50;;;;;;;;;;5081944;28;20203;-90
2022/03/15 05:55:10;;;;;;;128.23;57.28;;;;;;;;;;5082039;28;20195;-90
2022/03/15 05:57:36;;;;;;;127.15;57.85;;;;;;;;;;5082153;28;20199;-90
2022/03/15 06:00:04;;;;;;;128.77;56.65;;;;;;;;;;5082165;28;20226;-90
2022/03/15 06:02:30;;;;;;;125.85;55.90;;;;;;;;;;5080645;28;20227;-90
2022/03/15 06:04:59;;;;;;;129.93;56.35;;;;;;;;;;5081672;28;20195;-90
2022/03/15 06:07:26;;;;;;;120.72;53.30;;;;;;;;;;5080974;28;20207;-90
2022/03/15 06:09:52;;;;;;;123.55;57.45;;;;;;;;;;5082417;28;20209;-90
2022/03/15 06:12:20;;;;;;;123.90;56.58;;;;;;;;;;5063764;28;20228;-90
2022/03/15 06:14:47;;;;;;;134.27;59.25;;;;;;;;;;5067741;28;20250;-92
2022/03/15 06:17:13;;;;;;;129.80;57.53;;;;;;;;;;5069608;28;20246;-92
2022/03/15 06:19:40;;;;;;;131.60;59.00;;;;;;;;;;5076447;28;20434;-92
2022/03/15 06:22:08;;;;;;;138.15;60.45;;;;;;;;;;5076440;28;20226;-92
2022/03/15 06:24:36;;;;;;;135.02;60.03;;;;;;;;;;5066748;28;20719;-92
2022/03/15 06:27:06;;;;;;;137.30;61.08;;;;;;;;;;5071959;28;20202;-93
2022/03/15 06:29:32;;;;;;;128.63;57.85;;;;;;;;;;5071630;28;20222;-93
2022/03/15 06:31:59;;;;;;;129.57;58.40;;;;;;;;;;5070470;28;20196;-93
2022/03/15 06:34:25;;;;;;;132.75;58.28;;;;;;;;;;5063702;28;20196;-92
2022/03/15 06:36:52;;;;;;;145.85;58.78;;;;;;;;;;5074172;28;20294;-93
2022/03/15 06:39:20;;;;;;;128.70;57.30;;;;;;;;;;5080989;28;20730;-92
2022/03/15 06:41:46;;;;;;;134.30;61.35;;;;;;;;;;5081081;28;20219;-92
2022/03/15 06:44:13;;;;;;;136.23;62.42;;;;;;;;;;5077915;28;20208;-94
2022/03/15 06:46:40;;;;;;;142.43;66.90;;;;;;;;;;5075734;28;20259;-91
2022/03/15 06:49:06;;;;;;;139.68;62.72;;;;;;;;;;5066876;28;20867;-94
2022/03/15 06:51:33;;;;;;;148.98;65.32;;;;;;;;;;5080440;28;20199;-93
2022/03/15 06:53:59;;;;;;;147.90;67.60;;;;;;;;;;5067728;28;20219;-93
2022/03/15 06:56:27;;;;;;;149.80;67.53;;;;;;;;;;5087665;28;20280;-92
2022/03/15 06:58:54;;;;;;;156.77;67.97;;;;;;;;;;5078872;28;20207;-93
2022/03/15 07:01:21;;;;;;;142.18;64.25;;;;;;;;;;5076086;28;20198;-92
2022/03/15 07:03:49;;;;;;;148.68;66.80;;;;;;;;;;5100391;28;20190;-92
2022/03/15 07:06:16;;;;;;;144.63;66.15;;;;;;;;;;5072706;28;20663;-91
2022/03/15 07:08:42;;;;;;;145.38;63.75;;;;;;;;;;5062634;28;20602;-89
2022/03/15 07:11:08;;;;;;;149.57;66.68;;;;;;;;;;5064560;28;20197;-90
2022/03/15 07:13:36;;;;;;;148.70;66.18;;;;;;;;;;5070303;28;20610;-89
2022/03/15 07:16:03;;;;;;;145.32;64.13;;;;;;;;;;5081091;28;20239;-90
2022/03/15 07:18:29;;;;;;;153.23;65.78;;;;;;;;;;5064907;28;20196;-89
2022/03/15 07:20:56;;;;;;;152.98;66.07;;;;;;;;;;5063954;28;20200;-90
2022/03/15 07:23:22;;;;;;;151.18;68.32;;;;;;;;;;5062558;28;20274;-91
2022/03/15 07:25:49;;;;;;;155.52;68.88;;;;;;;;;;5064262;28;20231;-90
2022/03/15 07:28:15;;;;;;;154.18;68.10;;;;;;;;;;5064354;28;20196;-91
2022/03/15 07:30:43;;;;;;;163.05;69.60;;;;;;;;;;5064387;28;20200;-91
2022/03/15 07:33:10;;;;;;;129.77;56.75;;;;;;;;;;5062108;28;20231;-89
2022/03/15 07:35:37;;;;;;;147.27;65.38;;;;;;;;;;5063673;28;20261;-90
2022/03/15 07:38:03;;;;;;;143.90;64.35;;;;;;;;;;5065245;28;20204;-90
2022/03/15 07:40:31;;;;;;;152.13;68.65;;;;;;;;;;5065093;28;20196;-91
2022/03/15 07:42:59;;;;;;;154.20;66.93;;;;;;;;;;5064043;28;20553;-90
2022/03/15 07:45:25;;;;;;;152.98;64.90;;;;;;;;;;5066226;28;20238;-91
2022/03/15 07:47:53;;;;;;;154.23;67.28;;;;;;;;;;5070793;28;20200;-91
2022/03/15 07:50:20;;;;;;;147.43;67.13;;;;;;;;;;5069041;28;20203;-89
2022/03/15 07:52:47;;;;;;;152.30;67.03;;;;;;;;;;5079437;28;20701;-89
2022/03/15 07:55:14;;;;;;;144.85;65.13;;;;;;;;;;5064356;28;20208;-91
2022/03/15 07:57:40;;;;;;;154.60;66.65;;;;;;;;;;5078039;28;20567;-90
2022/03/15 08:00:07;;;;;;;152.48;69.10;;;;;;;;;;5083216;28;20282;-91
2022/03/15 08:02:34;;;;;;;152.18;67.93;;;;;;;;;;5083510;28;20287;-91
2022/03/15 08:05:03;;;;;;;151.35;67.15;;;;;;;;;;5079088;28;20646;-91
2022/03/15 08:07:29;;;;;;;150.70;67.43;;;;;;;;;;5063950;28;20206;-91
2022/03/15 08:09:56;;;;;;;154.05;63.47;;;;;;;;;;5103815;28;20248;-92
2022/03/15 08:12:22;;;;;;;147.30;65.70;;;;;;;;;;5080847;28;20208;-91
2022/03/15 08:14:49;;;;;;;149.18;65.32;;;;;;;;;;5064164;28;20208;-91
2022/03/15 08:17:15;;;;;;;153.63;66.22;;;;;;;;;;5064090;28;20228;-91
2022/03/15 08:19:42;;;;;;;147.65;64.10;;;;;;;;;;5064264;28;20200;-92
2022/03/15 08:22:09;;;;;;;152.65;65.32;;;;;;;;;;5072738;28;20219;-91
2022/03/15 08:24:36;;;;;;;154.82;65.75;;;;;;;;;;5084031;28;20200;-91
2022/03/15 08:27:02;;;;;;;152.65;67.47;;;;;;;;;;5083412;28;20617;-91
2022/03/15 08:29:30;;;;;;;152.15;67.07;;;;;;;;;;5082513;28;20236;-92
2022/03/15 08:31:57;;;;;;;160.18;68.80;;;;;;;;;;5082790;28;20207;-92
2022/03/15 08:34:23;;;;;;;147.30;64.20;;;;;;;;;;5083835;28;20716;-92
2022/03/15 08:36:50;;;;;;;148.55;65.30;;;;;;;;;;5083088;28;20371;-91
2022/03/15 08:39:21;;;;;;;154.98;66.53;;;;;;;;;;5083143;28;20278;-91
2022/03/15 08:41:51;;;;;;;150.73;65.93;;;;;;;;;;5075784;28;20188;-90
2022/03/15 08:44:18;;;;;;;146.27;65.28;;;;;;;;;;5063453;28;20204;-91
2022/03/15 08:46:45;;;;;;;148.37;64.90;;;;;;;;;;5079280;28;20199;-92
2022/03/15 08:49:11;;;;;;;153.10;65.00;;;;;;;;;;5063800;28;20481;-91
2022/03/15 08:51:38;;;;;;;158.50;63.80;;;;;;;;;;5066685;28;20229;-93
2022/03/15 08:54:04;;;;;;;151.57;65.07;;;;;;;;;;5083558;28;20457;-92
2022/03/15 08:56:32;;;;;;;151.57;64.10;;;;;;;;;;5080945;28;20899;-92
2022/03/15 08:58:59;;;;;;;151.47;65.10;;;;;;;;;;5061928;28;21009;-92
2022/03/15 09:01:25;;;;;;;148.60;63.63;;;;;;;;;;5062405;28;20493;-93
2022/03/15 09:03:52;;;;;;;148.63;63.23;;;;;;;;;;5069577;28;20539;-92
2022/03/15 09:06:18;;;;;;;160.87;62.13;;;;;;;;;;5082924;28;20461;-93
2022/03/15 09:08:46;;;;;;;149.70;64.20;;;;;;;;;;5072689;28;20451;-93
2022/03/15 09:11:13;;;;;;;150.23;64.17;;;;;;;;;;5062473;28;20461;-92
2022/03/15 09:13:42;;;;;;;146.70;63.93;;;;;;;;;;5079826;28;20499;-92
2022/03/15 09:16:08;;;;;;;153.60;68.27;;;;;;;;;;5077637;28;20484;-91
2022/03/15 09:18:35;;;;;;;154.40;67.13;;;;;;;;;;5061860;28;20442;-94
2022/03/15 09:21:01;;;;;;;150.83;64.23;;;;;;;;;;5062986;28;20481;-92
2022/03/15 09:23:28;;;;;;;154.43;67.50;;;;;;;;;;5061699;28;20482;-91
2022/03/15 09:25:54;;;;;;;155.57;66.67;;;;;;;;;;5065971;28;20470;-90
2022/03/15 09:28:21;;;;;;;151.87;67.87;;;;;;;;;;5061102;28;20447;-91
2022/03/15 09:30:49;;;;;;;145.47;64.33;;;;;;;;;;5076257;28;20465;-91
2022/03/15 09:33:15;;;;;;;147.60;64.27;;;;;;;;;;5081524;28;20446;-90
2022/03/15 09:35:42;;;;;;;149.10;64.03;;;;;;;;;;5075634;28;20446;-90
2022/03/15 09:38:08;;;;;;;146.90;62.83;;;;;;;;;;5082753;28;20941;-90
2022/03/15 09:40:36;;;;;;;145.17;63.30;;;;;;;;;;5069168;28;20469;-91
2022/03/15 09:43:05;;;;;;;149.80;65.13;;;;;;;;;;5073289;28;20485;-90
2022/03/15 09:45:33;;;;;;;152.10;62.80;;;;;;;;;;5077031;28;20450;-90
2022/03/15 09:48:02;;;;;;;147.13;63.33;;;;;;;;;;5076450;28;20476;-91
2022/03/15 09:50:29;;;;;;;153.97;65.77;;;;;;;;;;5073703;28;20469;-92
2022/03/15 09:52:56;;;;;;;151.47;63.13;;;;;;;;;;5074985;28;20454;-90
2022/03/15 09:55:24;;;;;;;149.17;63.10;;;;;;;;;;5072777;28;20532;-91
2022/03/15 09:57:50;;;;;;;148.83;61.73;;;;;;;;;;5081835;28;20481;-90
2022/03/15 10:00:17;;;;;;;145.27;62.90;;;;;;;;;;5069623;28;20514;-90
2022/03/15 10:02:44;;;;;;;152.10;63.17;;;;;;;;;;5080148;28;20559;-88
2022/03/15 10:05:13;;;;;;;164.77;67.60;;;;;;;;;;5077289;28;20458;-90
2022/03/15 10:07:39;;;;;;;149.57;64.27;;;;;;;;;;5071989;28;20443;-91
2022/03/15 10:10:07;;;;;;;153.90;65.57;;;;;;;;;;5073862;28;20470;-91
2022/03/15 10:12:34;;;;;;;157.73;66.70;;;;;;;;;;5079009;28;20458;-91
2022/03/15 10:15:10;;;;;;;151.43;66.10;;;;;;;;;;5074922;28;20531;-92
2022/03/15 10:17:42;;;;;;;156.07;66.00;;;;;;;;;;5081721;28;20508;-91
2022/03/15 10:20:09;;;;;;;151.77;65.40;;;;;;;;;;5081953;28;20483;-90
2022/03/15 10:22:37;;;;;;;158.40;65.20;;;;;;;;;;5082154;28;20477;-91
2022/03/15 10:25:03;;;;;;;151.10;64.90;;;;;;;;;;5082650;28;20502;-90
2022/03/15 10:27:34;;;;;;;150.70;63.90;;;;;;;;;;5078512;28;20523;-90
2022/03/15 10:30:03;;;;;;;152.00;63.23;;;;;;;;;;5080034;28;20526;-88
2022/03/15 10:32:29;;;;;;;151.20;64.97;;;;;;;;;;5081733;28;20466;-90
2022/03/15 10:35:06;;;;;;;154.00;65.10;;;;;;;;;;5063934;28;20837;-92
2022/03/15 10:37:35;;;;;;;155.67;66.37;;;;;;;;;;5066087;28;20505;-91
2022/03/15 10:40:03;;;;;;;149.97;64.60;;;;;;;;;;5069500;28;20969;-91
2022/03/15 10:42:30;;;;;;;153.70;63.07;;;;;;;;;;5065317;28;20506;-91
2022/03/15 10:44:58;;;;;;;153.00;63.70;;;;;;;;;;5074597;28;20445;-89
2022/03/15 10:47:24;;;;;;;153.23;66.10;;;;;;;;;;5082846;28;20893;-91
2022/03/15 10:49:52;;;;;;;160.33;68.23;;;;;;;;;;5083524;28;20441;-91
2022/03/15 10:52:29;;;;;;;153.50;66.57;;;;;;;;;;5084214;28;20449;-91
2022/03/15 10:54:55;;;;;;;152.70;65.97;;;;;;;;;;5079112;28;20462;-92
2022/03/15 10:57:23;;;;;;;151.30;65.70;;;;;;;;;;5065655;28;20446;-88
2022/03/15 10:59:51;;;;;;;153.20;66.23;;;;;;;;;;5065693;28;20500;-92
2022/03/15 11:02:18;;;;;;;151.90;65.30;;;;;;;;;;5065628;28;20455;-90
2022/03/15 11:04:47;;;;;;;151.47;67.00;;;;;;;;;;5076804;28;20550;-89
2022/03/15 11:07:14;;;;;;;148.80;66.60;;;;;;;;;;5083346;28;20522;-88
2022/03/15 11:09:41;;;;;;;150.17;67.50;;;;;;;;;;5081027;28;21017;-91
2022/03/15 11:12:08;;;;;;;152.70;66.67;;;;;;;;;;5069011;28;20455;-88
2022/03/15 11:14:39;;;;;;;145.53;63.47;;;;;;;;;;5063929;28;20450;-91
2022/03/15 11:17:07;;;;;;;156.73;66.37;;;;;;;;;;5074273;28;20992;-91
2022/03/15 11:19:35;;;;;;;151.87;67.20;;;;;;;;;;5073437;28;20514;-92
2022/03/15 11:22:03;;;;;;;153.80;69.33;;;;;;;;;;5073470;28;20996;-90
2022/03/15 11:24:32;;;;;;;150.50;66.70;;;;;;;;;;5084190;28;20515;-92
2022/03/15 11:27:00;;;;;;;150.53;66.33;;;;;;;;;;5080389;28;20449;-91
2022/03/15 11:29:27;;;;;;;149.17;65.67;;;;;;;;;;5084791;28;20442;-93
2022/03/15 11:31:56;;;;;;;153.40;67.83;;;;;;;;;;5075287;28;20600;-90
2022/03/15 11:34:23;;;;;;;148.60;66.00;;;;;;;;;;5083054;28;20565;-88
2022/03/15 11:36:49;;;;;;;148.50;65.10;;;;;;;;;;5085270;28;20488;-89
2022/03/15 11:39:16;;;;;;;153.97;68.67;;;;;;;;;;5085719;28;20437;-92
2022/03/15 11:41:43;;;;;;;146.47;64.10;;;;;;;;;;5086909;28;20441;-92
2022/03/15 11:44:13;;;;;;;147.10;66.17;;;;;;;;;;5085748;28;20492;-93
2022/03/15 11:46:45;;;;;;;152.57;65.20;;;;;;;;;;5081065;28;20457;-88
2022/03/15 11:49:20;;;;;;;154.33;64.97;;;;;;;;;;5069970;28;20485;-88
2022/03/15 11:52:01;;;;;;;152.30;65.70;;;;;;;;;;5065611;28;20446;-90
2022/03/15 11:54:31;;;;;;;145.40;65.23;;;;;;;;;;5066716;28;20442;-90
2022/03/15 11:56:59;;;;;;;152.13;67.67;;;;;;;;;;5079382;28;20450;-90
2022/03/15 11:59:25;;;;;;;149.37;66.07;;;;;;;;;;5085387;28;20506;-91
2022/03/15 12:01:54;;;;;;;148.37;66.93;;;;;;;;;;5086189;28;20441;-91
2022/03/15 12:04:24;;;;;;;148.80;66.50;;;;;;;;;;5083305;28;20523;-94
2022/03/15 12:06:54;;;;;;;152.03;67.00;;;;;;;;;;5083323;28;20513;-92
2022/03/15 12:09:22;;;;;;;150.33;67.67;;;;;;;;;;5082481;28;20445;-92
2022/03/15 12:11:49;;;;;;;150.10;67.00;;;;;;;;;;5069566;28;20454;-91
2022/03/15 12:14:17;;;;;;;149.00;66.40;;;;;;;;;;5081492;28;20492;-89
2022/03/15 12:16:51;;;;;;;156.70;72.40;;;;;;;;;;5072580;28;20482;-89
2022/03/15 12:19:35;;;;;;;151.70;69.13;;;;;;;;;;5063098;28;20502;-91
2022/03/15 12:22:05;;;;;;;150.87;68.87;;;;;;;;;;5065257;28;20465;-92
2022/03/15 12:24:33;;;;;;;152.50;68.97;;;;;;;;;;5075258;28;20607;-91
2022/03/15 12:27:00;;;;;;;151.77;68.40;;;;;;;;;;5078167;28;20449;-93
2022/03/15 12:29:27;;;;;;;154.67;67.97;;;;;;;;;;5077336;28;20454;-91
2022/03/15 12:31:54;;;;;;;149.23;67.97;;;;;;;;;;5083273;28;20445;-93
2022/03/15 12:34:21;;;;;;;152.87;68.80;;;;;;;;;;5075441;28;20484;-91
2022/03/15 12:36:49;;;;;;;151.93;70.20;;;;;;;;;;5082076;28;20457;-93
2022/03/15 12:39:18;;;;;;;153.20;70.70;;;;;;;;;;5069646;28;20481;-93
2022/03/15 12:41:45;;;;;;;151.97;67.40;;;;;;;;;;5068778;28;20446;-89
2022/03/15 12:44:11;;;;;;;147.67;66.03;;;;;;;;;;5077330;28;20557;-92
2022/03/15 12:46:39;;;;;;;155.63;71.80;;;;;;;;;;5068842;28;20450;-92
2022/03/15 12:49:06;;;;;;;151.73;70.17;;;;;;;;;;5065395;28;20459;-94
2022/03/15 12:51:37;;;;;;;156.67;70.90;;;;;;;;;;5069084;28;20458;-93
2022/03/15 12:54:04;;;;;;;148.27;67.30;;;;;;;;;;5066485;28;20447;-93
2022/03/15 12:56:32;;;;;;;150.77;69.63;;;;;;;;;;5075250;28;20442;-93
2022/03/15 12:58:59;;;;;;;156.17;70.13;;;;;;;;;;5079429;28;20519;-93
2022/03/15 13:01:26;;;;;;;148.67;67.50;;;;;;;;;;5071117;28;20457;-91
2022/03/15 13:03:54;;;;;;;154.27;70.80;;;;;;;;;;5070892;28;20512;-92
2022/03/15 13:06:21;;;;;;;154.20;71.10;;;;;;;;;;5079618;28;20450;-91
2022/03/15 13:08:55;;;;;;;170.57;75.03;;;;;;;;;;5080893;28;20454;-92
2022/03/15 13:11:21;;;;;;;155.97;70.77;;;;;;;;;;5073143;28;20446;-90
2022/03/15 13:13:49;;;;;;;151.00;68.27;;;;;;;;;;5079349;28;20454;-90
2022/03/15 13:16:16;;;;;;;150.40;68.53;;;;;;;;;;5076745;28;20473;-91
2022/03/15 13:18:43;;;;;;;148.60;67.20;;;;;;;;;;5078431;28;20461;-92
2022/03/15 13:21:10;;;;;;;151.37;69.93;;;;;;;;;;5078063;28;20461;-92
2022/03/15 13:23:38;;;;;;;153.30;71.10;;;;;;;;;;5073684;28;20541;-92
2022/03/15 13:26:07;;;;;;;151.17;69.37;;;;;;;;;;5078487;28;20719;-92
2022/03/15 13:28:40;;;;;;;150.87;66.07;;;;;;;;;;5078569;28;20472;-92
2022/03/15 13:31:09;;;;;;;149.37;66.43;;;;;;;;;;5079802;28;20468;-93
2022/03/15 13:33:38;;;;;;;154.87;66.90;;;;;;;;;;5074629;28;20446;-92
2022/03/15 13:36:05;;;;;;;158.37;67.93;;;;;;;;;;5071455;28;20485;-93
2022/03/15 13:38:34;;;;;;;154.87;68.57;;;;;;;;;;5074727;28;20508;-90
2022/03/15 13:41:01;;;;;;;147.13;64.93;;;;;;;;;;5078003;28;20449;-91
2022/03/15 13:43:29;;;;;;;152.07;68.33;;;;;;;;;;5074585;28;20445;-93
2022/03/15 13:45:56;;;;;;;154.30;71.00;;;;;;;;;;5075272;28;20472;-91
2022/03/15 13:48:29;;;;;;;151.40;69.90;;;;;;;;;;5065557;28;20455;-91
2022/03/15 13:51:06;;;;;;;156.43;70.70;;;;;;;;;;5081486;28;20466;-90
2022/03/15 13:53:33;;;;;;;151.03;69.87;;;;;;;;;;5075701;28;20472;-93
2022/03/15 13:56:09;;;;;;;156.97;74.17;;;;;;;;;;5078288;28;20499;-93
2022/03/15 13:58:36;;;;;;;149.67;69.00;;;;;;;;;;5076849;28;20471;-90
2022/03/15 14:01:04;;;;;;;153.83;69.20;;;;;;;;;;5058547;28;20473;-91
2022/03/15 14:03:34;;;;;;;154.47;71.40;;;;;;;;;;5059311;28;20459;-92
2022/03/15 14:06:01;;;;;;;153.20;71.67;;;;;;;;;;5058699;28;20566;-93